sensor_id;sensor_type;location;lat;lon;timestamp;P1;durP1;ratioP1;P2;durP2;ratioP2
45114;SDS011;30877;43.706;10.780;2023-11-22T00:00:05;0.38;;;0.00;;
45114;SDS011;30877;43.706;10.780;2023-11-22T00:02:34;1.13;;;0.22;;
45114;SDS011;30877;43.706;10.780;2023-11-22T00:05:03;0.52;;;0.15;;
45114;SDS011;30877;43.706;10.780;2023-11-22T00:07:33;0.45;;;0.03;;
45114;SDS011;30877;43.706;10.780;2023-11-22T00:10:01;0.88;;;0.10;;
45114;SDS011;30877;43.706;10.780;2023-11-22T00:12:31;0.70;;;0.15;;
45114;SDS011;30877;43.706;10.780;2023-11-22T00:15:08;0.43;;;0.10;;
45114;SDS011;30877;43.706;10.780;2023-11-22T00:17:38;1.95;;;0.10;;
45114;SDS011;30877;43.706;10.780;2023-11-22T00:20:07;0.10;;;0.00;;
45114;SDS011;30877;43.706;10.780;2023-11-22T00:22:36;0.25;;;0.08;;
45114;SDS011;30877;43.706;10.780;2023-11-22T00:25:05;1.10;;;0.10;;
45114;SDS011;30877;43.706;10.780;2023-11-22T00:27:34;0.13;;;0.03;;
45114;SDS011;30877;43.706;10.780;2023-11-22T00:30:05;0.85;;;0.10;;
45114;SDS011;30877;43.706;10.780;2023-11-22T00:32:38;1.45;;;0.08;;
45114;SDS011;30877;43.706;10.780;2023-11-22T00:35:08;1.98;;;0.20;;
45114;SDS011;30877;43.706;10.780;2023-11-22T00:37:36;0.55;;;0.25;;
45114;SDS011;30877;43.706;10.780;2023-11-22T00:40:06;0.70;;;0.20;;
45114;SDS011;30877;43.706;10.780;2023-11-22T00:42:38;0.63;;;0.20;;
45114;SDS011;30877;43.706;10.780;2023-11-22T00:45:10;1.10;;;0.10;;
45114;SDS011;30877;43.706;10.780;2023-11-22T00:47:38;0.35;;;0.10;;
45114;SDS011;30877;43.706;10.780;2023-11-22T00:50:07;0.80;;;0.17;;
45114;SDS011;30877;43.706;10.780;2023-11-22T00:52:35;0.77;;;0.10;;
45114;SDS011;30877;43.706;10.780;2023-11-22T00:55:04;0.60;;;0.20;;
45114;SDS011;30877;43.706;10.780;2023-11-22T00:57:33;0.20;;;0.10;;
45114;SDS011;30877;43.706;10.780;2023-11-22T01:00:01;1.45;;;0.10;;
45114;SDS011;30877;43.706;10.780;2023-11-22T01:02:34;1.00;;;0.15;;
45114;SDS011;30877;43.706;10.780;2023-11-22T01:05:06;0.55;;;0.10;;
45114;SDS011;30877;43.706;10.780;2023-11-22T01:07:44;1.85;;;0.30;;
45114;SDS011;30877;43.706;10.780;2023-11-22T01:10:12;1.25;;;0.30;;
45114;SDS011;30877;43.706;10.780;2023-11-22T01:12:41;1.17;;;0.30;;
45114;SDS011;30877;43.706;10.780;2023-11-22T01:15:09;0.90;;;0.22;;
45114;SDS011;30877;43.706;10.780;2023-11-22T01:17:39;0.55;;;0.20;;
45114;SDS011;30877;43.706;10.780;2023-11-22T01:20:08;1.55;;;0.20;;
45114;SDS011;30877;43.706;10.780;2023-11-22T01:22:39;0.68;;;0.17;;
45114;SDS011;30877;43.706;10.780;2023-11-22T01:25:07;0.80;;;0.20;;
45114;SDS011;30877;43.706;10.780;2023-11-22T01:27:36;0.85;;;0.20;;
45114;SDS011;30877;43.706;10.780;2023-11-22T01:30:05;1.27;;;0.22;;
45114;SDS011;30877;43.706;10.780;2023-11-22T01:32:34;0.93;;;0.20;;
45114;SDS011;30877;43.706;10.780;2023-11-22T01:35:05;1.00;;;0.38;;
45114;SDS011;30877;43.706;10.780;2023-11-22T01:37:33;0.88;;;0.20;;
45114;SDS011;30877;43.706;10.780;2023-11-22T01:40:02;1.55;;;0.40;;
45114;SDS011;30877;43.706;10.780;2023-11-22T01:42:30;2.35;;;0.57;;
45114;SDS011;30877;43.706;10.780;2023-11-22T01:45:00;1.50;;;0.30;;
45114;SDS011;30877;43.706;10.780;2023-11-22T01:47:29;2.28;;;0.50;;
45114;SDS011;30877;43.706;10.780;2023-11-22T01:49:58;1.25;;;0.22;;
45114;SDS011;30877;43.706;10.780;2023-11-22T01:52:28;2.03;;;0.40;;
45114;SDS011;30877;43.706;10.780;2023-11-22T01:54:56;0.77;;;0.30;;
45114;SDS011;30877;43.706;10.780;2023-11-22T01:57:25;0.77;;;0.50;;
45114;SDS011;30877;43.706;10.780;2023-11-22T01:59:54;1.67;;;0.50;;
45114;SDS011;30877;43.706;10.780;2023-11-22T02:02:23;2.17;;;0.68;;
45114;SDS011;30877;43.706;10.780;2023-11-22T02:04:51;1.90;;;0.47;;
45114;SDS011;30877;43.706;10.780;2023-11-22T02:07:19;2.63;;;0.57;;
45114;SDS011;30877;43.706;10.780;2023-11-22T02:09:49;2.75;;;0.60;;
45114;SDS011;30877;43.706;10.780;2023-11-22T02:12:20;1.75;;;0.45;;
45114;SDS011;30877;43.706;10.780;2023-11-22T02:14:48;1.95;;;0.40;;
45114;SDS011;30877;43.706;10.780;2023-11-22T02:17:17;2.00;;;0.50;;
45114;SDS011;30877;43.706;10.780;2023-11-22T02:19:45;1.83;;;0.60;;
45114;SDS011;30877;43.706;10.780;2023-11-22T02:22:13;3.17;;;0.60;;
45114;SDS011;30877;43.706;10.780;2023-11-22T02:24:46;0.63;;;0.40;;
45114;SDS011;30877;43.706;10.780;2023-11-22T02:27:14;2.25;;;0.75;;
45114;SDS011;30877;43.706;10.780;2023-11-22T02:29:42;3.50;;;0.43;;
45114;SDS011;30877;43.706;10.780;2023-11-22T02:32:10;4.00;;;0.50;;
45114;SDS011;30877;43.706;10.780;2023-11-22T02:34:39;1.70;;;0.40;;
45114;SDS011;30877;43.706;10.780;2023-11-22T02:37:08;1.58;;;0.50;;
45114;SDS011;30877;43.706;10.780;2023-11-22T02:39:40;1.48;;;0.20;;
45114;SDS011;30877;43.706;10.780;2023-11-22T02:42:17;0.88;;;0.30;;
45114;SDS011;30877;43.706;10.780;2023-11-22T02:44:45;2.72;;;0.30;;
45114;SDS011;30877;43.706;10.780;2023-11-22T02:47:16;1.83;;;0.43;;
45114;SDS011;30877;43.706;10.780;2023-11-22T02:49:45;1.10;;;0.30;;
45114;SDS011;30877;43.706;10.780;2023-11-22T02:52:13;1.05;;;0.30;;
45114;SDS011;30877;43.706;10.780;2023-11-22T02:54:43;2.22;;;0.30;;
45114;SDS011;30877;43.706;10.780;2023-11-22T02:57:17;0.95;;;0.30;;
45114;SDS011;30877;43.706;10.780;2023-11-22T02:59:45;0.98;;;0.50;;
45114;SDS011;30877;43.706;10.780;2023-11-22T03:02:14;1.67;;;0.40;;
45114;SDS011;30877;43.706;10.780;2023-11-22T03:04:44;1.50;;;0.40;;
45114;SDS011;30877;43.706;10.780;2023-11-22T03:07:12;3.58;;;0.40;;
45114;SDS011;30877;43.706;10.780;2023-11-22T03:09:41;1.45;;;0.40;;
45114;SDS011;30877;43.706;10.780;2023-11-22T03:12:11;0.93;;;0.20;;
45114;SDS011;30877;43.706;10.780;2023-11-22T03:14:41;2.22;;;0.50;;
45114;SDS011;30877;43.706;10.780;2023-11-22T03:17:11;1.58;;;0.20;;
45114;SDS011;30877;43.706;10.780;2023-11-22T03:19:40;2.35;;;0.30;;
45114;SDS011;30877;43.706;10.780;2023-11-22T03:22:09;1.15;;;0.38;;
45114;SDS011;30877;43.706;10.780;2023-11-22T03:24:38;0.95;;;0.22;;
45114;SDS011;30877;43.706;10.780;2023-11-22T03:27:06;2.97;;;1.05;;
45114;SDS011;30877;43.706;10.780;2023-11-22T03:29:34;1.27;;;0.28;;
45114;SDS011;30877;43.706;10.780;2023-11-22T03:32:05;2.83;;;0.25;;
45114;SDS011;30877;43.706;10.780;2023-11-22T03:34:33;0.63;;;0.17;;
45114;SDS011;30877;43.706;10.780;2023-11-22T03:37:02;1.30;;;0.30;;
45114;SDS011;30877;43.706;10.780;2023-11-22T03:39:31;2.00;;;0.25;;
45114;SDS011;30877;43.706;10.780;2023-11-22T03:41:59;0.75;;;0.20;;
45114;SDS011;30877;43.706;10.780;2023-11-22T03:44:27;1.67;;;0.50;;
45114;SDS011;30877;43.706;10.780;2023-11-22T03:46:57;0.85;;;0.20;;
45114;SDS011;30877;43.706;10.780;2023-11-22T03:49:27;1.20;;;0.20;;
45114;SDS011;30877;43.706;10.780;2023-11-22T03:51:55;0.50;;;0.20;;
45114;SDS011;30877;43.706;10.780;2023-11-22T03:54:23;1.20;;;0.20;;
45114;SDS011;30877;43.706;10.780;2023-11-22T03:56:52;0.95;;;0.30;;
45114;SDS011;30877;43.706;10.780;2023-11-22T03:59:22;1.40;;;0.30;;
45114;SDS011;30877;43.706;10.780;2023-11-22T04:01:51;1.10;;;0.30;;
45114;SDS011;30877;43.706;10.780;2023-11-22T04:04:20;0.85;;;0.40;;
45114;SDS011;30877;43.706;10.780;2023-11-22T04:06:50;0.57;;;0.20;;
45114;SDS011;30877;43.706;10.780;2023-11-22T04:09:20;2.97;;;0.30;;
45114;SDS011;30877;43.706;10.780;2023-11-22T04:11:48;1.02;;;0.40;;
45114;SDS011;30877;43.706;10.780;2023-11-22T04:14:16;1.40;;;0.57;;
45114;SDS011;30877;43.706;10.780;2023-11-22T04:16:48;0.98;;;0.30;;
45114;SDS011;30877;43.706;10.780;2023-11-22T04:19:16;1.92;;;0.40;;
45114;SDS011;30877;43.706;10.780;2023-11-22T04:21:45;1.25;;;0.30;;
45114;SDS011;30877;43.706;10.780;2023-11-22T04:24:15;2.38;;;0.50;;
45114;SDS011;30877;43.706;10.780;2023-11-22T04:26:45;2.28;;;0.40;;
45114;SDS011;30877;43.706;10.780;2023-11-22T04:29:15;0.80;;;0.40;;
45114;SDS011;30877;43.706;10.780;2023-11-22T04:31:45;2.47;;;0.68;;
45114;SDS011;30877;43.706;10.780;2023-11-22T04:34:13;1.48;;;0.45;;
45114;SDS011;30877;43.706;10.780;2023-11-22T04:36:42;0.98;;;0.43;;
45114;SDS011;30877;43.706;10.780;2023-11-22T04:39:15;1.48;;;0.40;;
45114;SDS011;30877;43.706;10.780;2023-11-22T04:41:44;0.98;;;0.55;;
45114;SDS011;30877;43.706;10.780;2023-11-22T04:44:13;1.27;;;0.50;;
45114;SDS011;30877;43.706;10.780;2023-11-22T04:46:41;2.70;;;0.40;;
45114;SDS011;30877;43.706;10.780;2023-11-22T04:49:09;1.15;;;0.60;;
45114;SDS011;30877;43.706;10.780;2023-11-22T04:51:38;2.78;;;0.70;;
45114;SDS011;30877;43.706;10.780;2023-11-22T04:54:06;1.48;;;0.40;;
45114;SDS011;30877;43.706;10.780;2023-11-22T04:56:36;2.85;;;0.77;;
45114;SDS011;30877;43.706;10.780;2023-11-22T04:59:04;2.35;;;0.40;;
45114;SDS011;30877;43.706;10.780;2023-11-22T05:01:33;0.93;;;0.43;;
45114;SDS011;30877;43.706;10.780;2023-11-22T05:04:01;2.15;;;0.70;;
45114;SDS011;30877;43.706;10.780;2023-11-22T05:06:30;1.00;;;0.40;;
45114;SDS011;30877;43.706;10.780;2023-11-22T05:08:58;1.77;;;0.40;;
45114;SDS011;30877;43.706;10.780;2023-11-22T05:11:27;1.60;;;0.50;;
45114;SDS011;30877;43.706;10.780;2023-11-22T05:13:57;3.22;;;1.08;;
45114;SDS011;30877;43.706;10.780;2023-11-22T05:16:26;1.50;;;0.60;;
45114;SDS011;30877;43.706;10.780;2023-11-22T05:18:55;4.65;;;1.60;;
45114;SDS011;30877;43.706;10.780;2023-11-22T05:21:23;1.45;;;0.45;;
45114;SDS011;30877;43.706;10.780;2023-11-22T05:23:51;0.88;;;0.40;;
45114;SDS011;30877;43.706;10.780;2023-11-22T05:26:21;2.00;;;0.77;;
45114;SDS011;30877;43.706;10.780;2023-11-22T05:28:49;3.35;;;0.70;;
45114;SDS011;30877;43.706;10.780;2023-11-22T05:31:22;0.80;;;0.40;;
45114;SDS011;30877;43.706;10.780;2023-11-22T05:33:50;3.05;;;0.70;;
45114;SDS011;30877;43.706;10.780;2023-11-22T05:36:18;5.35;;;1.25;;
45114;SDS011;30877;43.706;10.780;2023-11-22T05:38:47;1.65;;;0.40;;
45114;SDS011;30877;43.706;10.780;2023-11-22T05:41:15;1.08;;;0.50;;
45114;SDS011;30877;43.706;10.780;2023-11-22T05:43:43;2.38;;;0.43;;
45114;SDS011;30877;43.706;10.780;2023-11-22T05:46:12;1.90;;;0.38;;
45114;SDS011;30877;43.706;10.780;2023-11-22T05:48:42;2.63;;;0.47;;
45114;SDS011;30877;43.706;10.780;2023-11-22T05:51:10;2.17;;;0.50;;
45114;SDS011;30877;43.706;10.780;2023-11-22T05:53:39;1.38;;;0.50;;
45114;SDS011;30877;43.706;10.780;2023-11-22T05:56:08;2.72;;;0.40;;
45114;SDS011;30877;43.706;10.780;2023-11-22T05:58:37;1.05;;;0.50;;
45114;SDS011;30877;43.706;10.780;2023-11-22T06:01:06;3.95;;;0.40;;
45114;SDS011;30877;43.706;10.780;2023-11-22T06:03:35;2.13;;;0.50;;
45114;SDS011;30877;43.706;10.780;2023-11-22T06:06:05;1.25;;;0.50;;
45114;SDS011;30877;43.706;10.780;2023-11-22T06:08:34;1.67;;;0.40;;
45114;SDS011;30877;43.706;10.780;2023-11-22T06:11:02;0.95;;;0.50;;
45114;SDS011;30877;43.706;10.780;2023-11-22T06:13:31;1.23;;;0.30;;
45114;SDS011;30877;43.706;10.780;2023-11-22T06:15:59;1.48;;;0.40;;
45114;SDS011;30877;43.706;10.780;2023-11-22T06:18:27;1.38;;;0.60;;
45114;SDS011;30877;43.706;10.780;2023-11-22T06:20:57;1.63;;;0.40;;
45114;SDS011;30877;43.706;10.780;2023-11-22T06:23:27;1.58;;;0.55;;
45114;SDS011;30877;43.706;10.780;2023-11-22T06:25:55;0.68;;;0.22;;
45114;SDS011;30877;43.706;10.780;2023-11-22T06:28:24;1.42;;;0.40;;
45114;SDS011;30877;43.706;10.780;2023-11-22T06:30:52;1.27;;;0.30;;
45114;SDS011;30877;43.706;10.780;2023-11-22T06:33:21;1.02;;;0.47;;
45114;SDS011;30877;43.706;10.780;2023-11-22T06:35:49;2.13;;;0.52;;
45114;SDS011;30877;43.706;10.780;2023-11-22T06:38:17;1.63;;;0.45;;
45114;SDS011;30877;43.706;10.780;2023-11-22T06:40:47;2.97;;;0.68;;
45114;SDS011;30877;43.706;10.780;2023-11-22T06:43:15;3.97;;;0.73;;
45114;SDS011;30877;43.706;10.780;2023-11-22T06:45:43;1.40;;;0.47;;
45114;SDS011;30877;43.706;10.780;2023-11-22T06:48:12;4.25;;;0.60;;
45114;SDS011;30877;43.706;10.780;2023-11-22T06:50:40;2.38;;;0.43;;
45114;SDS011;30877;43.706;10.780;2023-11-22T06:53:09;4.57;;;0.60;;
45114;SDS011;30877;43.706;10.780;2023-11-22T06:55:39;1.25;;;0.60;;
45114;SDS011;30877;43.706;10.780;2023-11-22T06:58:09;2.20;;;0.40;;
45114;SDS011;30877;43.706;10.780;2023-11-22T07:00:38;2.22;;;0.52;;
45114;SDS011;30877;43.706;10.780;2023-11-22T07:03:08;1.52;;;0.50;;
45114;SDS011;30877;43.706;10.780;2023-11-22T07:05:36;4.30;;;0.60;;
45114;SDS011;30877;43.706;10.780;2023-11-22T07:08:05;2.55;;;0.50;;
45114;SDS011;30877;43.706;10.780;2023-11-22T07:10:35;1.95;;;0.77;;
45114;SDS011;30877;43.706;10.780;2023-11-22T07:13:03;2.70;;;0.60;;
45114;SDS011;30877;43.706;10.780;2023-11-22T07:15:33;5.15;;;0.57;;
45114;SDS011;30877;43.706;10.780;2023-11-22T07:18:02;1.27;;;0.50;;
45114;SDS011;30877;43.706;10.780;2023-11-22T07:20:31;0.60;;;0.28;;
45114;SDS011;30877;43.706;10.780;2023-11-22T07:23:00;1.52;;;0.30;;
45114;SDS011;30877;43.706;10.780;2023-11-22T07:25:29;2.10;;;0.52;;
45114;SDS011;30877;43.706;10.780;2023-11-22T07:27:59;3.75;;;0.50;;
45114;SDS011;30877;43.706;10.780;2023-11-22T07:30:27;1.02;;;0.50;;
45114;SDS011;30877;43.706;10.780;2023-11-22T07:33:01;1.70;;;0.57;;
45114;SDS011;30877;43.706;10.780;2023-11-22T07:35:30;2.55;;;0.52;;
45114;SDS011;30877;43.706;10.780;2023-11-22T07:37:59;2.55;;;0.80;;
45114;SDS011;30877;43.706;10.780;2023-11-22T07:40:27;2.83;;;0.50;;
45114;SDS011;30877;43.706;10.780;2023-11-22T07:42:55;3.42;;;0.40;;
45114;SDS011;30877;43.706;10.780;2023-11-22T07:45:23;0.85;;;0.30;;
45114;SDS011;30877;43.706;10.780;2023-11-22T07:47:52;1.40;;;0.50;;
45114;SDS011;30877;43.706;10.780;2023-11-22T07:50:25;1.25;;;0.38;;
45114;SDS011;30877;43.706;10.780;2023-11-22T07:52:53;2.95;;;0.60;;
45114;SDS011;30877;43.706;10.780;2023-11-22T07:55:22;3.50;;;0.50;;
45114;SDS011;30877;43.706;10.780;2023-11-22T07:57:50;0.68;;;0.40;;
45114;SDS011;30877;43.706;10.780;2023-11-22T08:00:20;2.65;;;0.85;;
45114;SDS011;30877;43.706;10.780;2023-11-22T08:02:50;3.92;;;1.00;;
45114;SDS011;30877;43.706;10.780;2023-11-22T08:05:22;6.45;;;0.90;;
45114;SDS011;30877;43.706;10.780;2023-11-22T08:07:53;2.40;;;0.50;;
45114;SDS011;30877;43.706;10.780;2023-11-22T08:10:22;1.95;;;0.47;;
45114;SDS011;30877;43.706;10.780;2023-11-22T08:12:53;2.53;;;0.52;;
45114;SDS011;30877;43.706;10.780;2023-11-22T08:15:21;2.67;;;0.60;;
45114;SDS011;30877;43.706;10.780;2023-11-22T08:17:50;2.42;;;0.47;;
45114;SDS011;30877;43.706;10.780;2023-11-22T08:20:19;1.80;;;0.63;;
45114;SDS011;30877;43.706;10.780;2023-11-22T08:22:49;2.47;;;0.60;;
45114;SDS011;30877;43.706;10.780;2023-11-22T08:25:18;4.38;;;0.70;;
45114;SDS011;30877;43.706;10.780;2023-11-22T08:27:46;5.68;;;0.60;;
45114;SDS011;30877;43.706;10.780;2023-11-22T08:30:15;2.55;;;0.50;;
45114;SDS011;30877;43.706;10.780;2023-11-22T08:32:45;3.50;;;0.70;;
45114;SDS011;30877;43.706;10.780;2023-11-22T08:37:52;2.85;;;0.50;;
45114;SDS011;30877;43.706;10.780;2023-11-22T08:40:21;2.60;;;0.82;;
45114;SDS011;30877;43.706;10.780;2023-11-22T08:42:49;2.00;;;0.70;;
45114;SDS011;30877;43.706;10.780;2023-11-22T08:45:18;2.90;;;0.55;;
45114;SDS011;30877;43.706;10.780;2023-11-22T08:47:46;3.35;;;0.52;;
45114;SDS011;30877;43.706;10.780;2023-11-22T08:50:15;1.75;;;0.60;;
45114;SDS011;30877;43.706;10.780;2023-11-22T08:52:44;4.45;;;0.70;;
45114;SDS011;30877;43.706;10.780;2023-11-22T08:55:16;2.90;;;0.70;;
45114;SDS011;30877;43.706;10.780;2023-11-22T08:57:45;3.15;;;0.57;;
45114;SDS011;30877;43.706;10.780;2023-11-22T09:00:14;1.95;;;0.65;;
45114;SDS011;30877;43.706;10.780;2023-11-22T09:02:43;1.48;;;0.65;;
45114;SDS011;30877;43.706;10.780;2023-11-22T09:05:11;3.00;;;0.90;;
45114;SDS011;30877;43.706;10.780;2023-11-22T09:07:40;3.67;;;0.50;;
45114;SDS011;30877;43.706;10.780;2023-11-22T09:10:09;7.60;;;0.70;;
45114;SDS011;30877;43.706;10.780;2023-11-22T09:12:40;4.07;;;0.80;;
45114;SDS011;30877;43.706;10.780;2023-11-22T09:15:10;2.42;;;0.65;;
45114;SDS011;30877;43.706;10.780;2023-11-22T09:17:41;2.85;;;0.63;;
45114;SDS011;30877;43.706;10.780;2023-11-22T09:20:16;2.88;;;0.80;;
45114;SDS011;30877;43.706;10.780;2023-11-22T09:22:44;2.95;;;1.10;;
45114;SDS011;30877;43.706;10.780;2023-11-22T09:25:16;4.03;;;1.70;;
45114;SDS011;30877;43.706;10.780;2023-11-22T09:27:49;3.05;;;1.13;;
45114;SDS011;30877;43.706;10.780;2023-11-22T09:30:21;1.75;;;0.77;;
45114;SDS011;30877;43.706;10.780;2023-11-22T09:33:07;3.60;;;1.00;;
45114;SDS011;30877;43.706;10.780;2023-11-22T09:35:37;4.78;;;1.02;;
45114;SDS011;30877;43.706;10.780;2023-11-22T09:38:09;1.58;;;0.82;;
45114;SDS011;30877;43.706;10.780;2023-11-22T09:40:41;3.95;;;1.33;;
45114;SDS011;30877;43.706;10.780;2023-11-22T09:43:13;2.53;;;1.30;;
45114;SDS011;30877;43.706;10.780;2023-11-22T09:45:47;3.50;;;1.30;;
45114;SDS011;30877;43.706;10.780;2023-11-22T09:48:23;4.60;;;1.93;;
45114;SDS011;30877;43.706;10.780;2023-11-22T09:50:57;2.85;;;1.23;;
45114;SDS011;30877;43.706;10.780;2023-11-22T09:53:32;3.57;;;2.10;;
45114;SDS011;30877;43.706;10.780;2023-11-22T09:56:02;3.40;;;1.58;;
45114;SDS011;30877;43.706;10.780;2023-11-22T09:58:35;6.97;;;3.72;;
45114;SDS011;30877;43.706;10.780;2023-11-22T10:01:07;11.60;;;6.25;;
45114;SDS011;30877;43.706;10.780;2023-11-22T10:03:39;4.45;;;1.65;;
45114;SDS011;30877;43.706;10.780;2023-11-22T10:06:08;8.95;;;2.22;;
45114;SDS011;30877;43.706;10.780;2023-11-22T10:08:37;2.83;;;1.17;;
45114;SDS011;30877;43.706;10.780;2023-11-22T10:11:06;2.60;;;1.27;;
45114;SDS011;30877;43.706;10.780;2023-11-22T10:13:36;2.70;;;1.30;;
45114;SDS011;30877;43.706;10.780;2023-11-22T10:16:08;2.00;;;0.70;;
45114;SDS011;30877;43.706;10.780;2023-11-22T10:18:40;2.55;;;0.80;;
45114;SDS011;30877;43.706;10.780;2023-11-22T10:21:21;2.03;;;0.70;;
45114;SDS011;30877;43.706;10.780;2023-11-22T10:23:52;4.60;;;0.77;;
45114;SDS011;30877;43.706;10.780;2023-11-22T10:26:24;2.42;;;0.68;;
45114;SDS011;30877;43.706;10.780;2023-11-22T10:28:57;3.50;;;0.90;;
45114;SDS011;30877;43.706;10.780;2023-11-22T10:31:27;5.78;;;0.68;;
45114;SDS011;30877;43.706;10.780;2023-11-22T10:33:55;2.60;;;0.50;;
45114;SDS011;30877;43.706;10.780;2023-11-22T10:36:26;2.45;;;0.80;;
45114;SDS011;30877;43.706;10.780;2023-11-22T10:38:55;3.03;;;0.93;;
45114;SDS011;30877;43.706;10.780;2023-11-22T10:41:25;3.72;;;0.52;;
45114;SDS011;30877;43.706;10.780;2023-11-22T10:43:55;2.67;;;0.82;;
45114;SDS011;30877;43.706;10.780;2023-11-22T10:46:27;1.95;;;0.40;;
45114;SDS011;30877;43.706;10.780;2023-11-22T10:48:58;4.65;;;1.15;;
45114;SDS011;30877;43.706;10.780;2023-11-22T10:51:29;2.08;;;0.93;;
45114;SDS011;30877;43.706;10.780;2023-11-22T10:54:01;1.67;;;0.60;;
45114;SDS011;30877;43.706;10.780;2023-11-22T10:56:36;2.72;;;0.70;;
45114;SDS011;30877;43.706;10.780;2023-11-22T10:59:11;3.88;;;0.65;;
45114;SDS011;30877;43.706;10.780;2023-11-22T11:01:44;2.88;;;0.50;;
45114;SDS011;30877;43.706;10.780;2023-11-22T11:04:19;5.25;;;1.15;;
45114;SDS011;30877;43.706;10.780;2023-11-22T11:06:53;2.53;;;0.80;;
45114;SDS011;30877;43.706;10.780;2023-11-22T11:09:25;3.03;;;0.85;;
45114;SDS011;30877;43.706;10.780;2023-11-22T11:12:00;3.75;;;0.70;;
45114;SDS011;30877;43.706;10.780;2023-11-22T11:14:36;4.22;;;0.93;;
45114;SDS011;30877;43.706;10.780;2023-11-22T11:17:06;3.40;;;1.23;;
45114;SDS011;30877;43.706;10.780;2023-11-22T11:19:36;3.63;;;1.30;;
45114;SDS011;30877;43.706;10.780;2023-11-22T11:22:07;3.50;;;0.70;;
45114;SDS011;30877;43.706;10.780;2023-11-22T11:24:41;5.78;;;0.70;;
45114;SDS011;30877;43.706;10.780;2023-11-22T11:27:12;4.28;;;1.10;;
45114;SDS011;30877;43.706;10.780;2023-11-22T11:29:42;1.50;;;0.60;;
45114;SDS011;30877;43.706;10.780;2023-11-22T11:32:15;2.92;;;0.77;;
45114;SDS011;30877;43.706;10.780;2023-11-22T11:34:58;2.85;;;0.95;;
45114;SDS011;30877;43.706;10.780;2023-11-22T11:37:29;3.28;;;0.80;;
45114;SDS011;30877;43.706;10.780;2023-11-22T11:39:57;1.98;;;0.82;;
45114;SDS011;30877;43.706;10.780;2023-11-22T11:42:26;1.73;;;0.70;;
45114;SDS011;30877;43.706;10.780;2023-11-22T11:45:07;1.88;;;0.60;;
45114;SDS011;30877;43.706;10.780;2023-11-22T11:47:37;2.92;;;0.50;;
45114;SDS011;30877;43.706;10.780;2023-11-22T11:50:06;1.35;;;0.50;;
45114;SDS011;30877;43.706;10.780;2023-11-22T11:52:35;1.92;;;0.50;;
45114;SDS011;30877;43.706;10.780;2023-11-22T11:55:07;0.90;;;0.43;;
45114;SDS011;30877;43.706;10.780;2023-11-22T11:57:36;5.10;;;0.70;;
45114;SDS011;30877;43.706;10.780;2023-11-22T12:00:05;2.05;;;0.60;;
45114;SDS011;30877;43.706;10.780;2023-11-22T12:02:39;2.47;;;0.88;;
45114;SDS011;30877;43.706;10.780;2023-11-22T12:05:08;4.15;;;1.25;;
45114;SDS011;30877;43.706;10.780;2023-11-22T12:07:38;2.17;;;0.60;;
45114;SDS011;30877;43.706;10.780;2023-11-22T12:10:07;3.63;;;0.80;;
45114;SDS011;30877;43.706;10.780;2023-11-22T12:12:38;4.75;;;0.98;;
45114;SDS011;30877;43.706;10.780;2023-11-22T12:15:13;1.73;;;0.40;;
45114;SDS011;30877;43.706;10.780;2023-11-22T12:17:48;4.70;;;0.50;;
45114;SDS011;30877;43.706;10.780;2023-11-22T12:20:19;2.63;;;0.55;;
45114;SDS011;30877;43.706;10.780;2023-11-22T12:22:52;2.45;;;0.77;;
45114;SDS011;30877;43.706;10.780;2023-11-22T12:25:26;1.38;;;0.60;;
45114;SDS011;30877;43.706;10.780;2023-11-22T12:27:55;3.95;;;0.95;;
45114;SDS011;30877;43.706;10.780;2023-11-22T12:30:29;6.75;;;0.85;;
45114;SDS011;30877;43.706;10.780;2023-11-22T12:33:02;4.22;;;1.42;;
45114;SDS011;30877;43.706;10.780;2023-11-22T12:35:33;3.75;;;0.75;;
45114;SDS011;30877;43.706;10.780;2023-11-22T12:38:02;5.18;;;0.70;;
45114;SDS011;30877;43.706;10.780;2023-11-22T12:40:35;2.25;;;0.40;;
45114;SDS011;30877;43.706;10.780;2023-11-22T12:43:06;3.83;;;0.85;;
45114;SDS011;30877;43.706;10.780;2023-11-22T12:45:38;5.20;;;1.00;;
45114;SDS011;30877;43.706;10.780;2023-11-22T12:48:21;4.43;;;0.88;;
45114;SDS011;30877;43.706;10.780;2023-11-22T12:50:52;3.47;;;0.55;;
45114;SDS011;30877;43.706;10.780;2023-11-22T12:53:24;0.93;;;0.60;;
45114;SDS011;30877;43.706;10.780;2023-11-22T12:55:55;2.35;;;1.05;;
45114;SDS011;30877;43.706;10.780;2023-11-22T12:58:25;2.95;;;0.60;;
45114;SDS011;30877;43.706;10.780;2023-11-22T13:00:57;4.93;;;0.70;;
45114;SDS011;30877;43.706;10.780;2023-11-22T13:03:29;2.85;;;0.70;;
45114;SDS011;30877;43.706;10.780;2023-11-22T13:06:01;2.83;;;0.60;;
45114;SDS011;30877;43.706;10.780;2023-11-22T13:08:33;1.13;;;0.40;;
45114;SDS011;30877;43.706;10.780;2023-11-22T13:11:06;2.63;;;0.85;;
45114;SDS011;30877;43.706;10.780;2023-11-22T13:13:37;1.08;;;0.30;;
45114;SDS011;30877;43.706;10.780;2023-11-22T13:19:14;2.75;;;0.50;;
45114;SDS011;30877;43.706;10.780;2023-11-22T13:21:49;3.40;;;0.80;;
45114;SDS011;30877;43.706;10.780;2023-11-22T13:24:23;13.43;;;2.45;;
45114;SDS011;30877;43.706;10.780;2023-11-22T13:26:52;3.25;;;0.60;;
45114;SDS011;30877;43.706;10.780;2023-11-22T13:29:20;6.38;;;0.80;;
45114;SDS011;30877;43.706;10.780;2023-11-22T13:31:52;9.15;;;1.20;;
45114;SDS011;30877;43.706;10.780;2023-11-22T13:34:21;9.00;;;0.90;;
45114;SDS011;30877;43.706;10.780;2023-11-22T13:36:50;5.10;;;0.50;;
45114;SDS011;30877;43.706;10.780;2023-11-22T13:39:19;1.70;;;0.47;;
45114;SDS011;30877;43.706;10.780;2023-11-22T13:41:48;2.90;;;0.70;;
45114;SDS011;30877;43.706;10.780;2023-11-22T13:44:17;3.15;;;0.43;;
45114;SDS011;30877;43.706;10.780;2023-11-22T13:46:47;3.80;;;0.75;;
45114;SDS011;30877;43.706;10.780;2023-11-22T13:49:25;3.17;;;0.80;;
45114;SDS011;30877;43.706;10.780;2023-11-22T13:51:56;3.30;;;0.75;;
45114;SDS011;30877;43.706;10.780;2023-11-22T13:54:31;3.25;;;0.70;;
45114;SDS011;30877;43.706;10.780;2023-11-22T13:57:06;4.15;;;1.15;;
45114;SDS011;30877;43.706;10.780;2023-11-22T13:59:37;4.10;;;0.90;;
45114;SDS011;30877;43.706;10.780;2023-11-22T14:02:08;2.63;;;0.77;;
45114;SDS011;30877;43.706;10.780;2023-11-22T14:04:40;2.20;;;0.45;;
45114;SDS011;30877;43.706;10.780;2023-11-22T14:07:11;1.73;;;0.75;;
45114;SDS011;30877;43.706;10.780;2023-11-22T14:09:40;3.17;;;0.75;;
45114;SDS011;30877;43.706;10.780;2023-11-22T14:12:09;2.00;;;0.60;;
45114;SDS011;30877;43.706;10.780;2023-11-22T14:14:37;3.30;;;1.42;;
45114;SDS011;30877;43.706;10.780;2023-11-22T14:17:06;2.25;;;0.70;;
45114;SDS011;30877;43.706;10.780;2023-11-22T14:19:35;1.10;;;0.70;;
45114;SDS011;30877;43.706;10.780;2023-11-22T14:22:15;2.53;;;0.50;;
45114;SDS011;30877;43.706;10.780;2023-11-22T14:24:45;3.47;;;0.70;;
45114;SDS011;30877;43.706;10.780;2023-11-22T14:27:14;1.70;;;0.70;;
45114;SDS011;30877;43.706;10.780;2023-11-22T14:29:42;7.93;;;1.27;;
45114;SDS011;30877;43.706;10.780;2023-11-22T14:32:14;12.20;;;1.33;;
45114;SDS011;30877;43.706;10.780;2023-11-22T14:34:42;1.55;;;0.68;;
45114;SDS011;30877;43.706;10.780;2023-11-22T14:37:11;1.35;;;0.50;;
45114;SDS011;30877;43.706;10.780;2023-11-22T14:39:42;2.47;;;0.63;;
45114;SDS011;30877;43.706;10.780;2023-11-22T14:42:12;1.80;;;0.40;;
45114;SDS011;30877;43.706;10.780;2023-11-22T14:44:42;5.43;;;0.93;;
45114;SDS011;30877;43.706;10.780;2023-11-22T14:47:11;2.65;;;0.85;;
45114;SDS011;30877;43.706;10.780;2023-11-22T14:49:43;2.20;;;0.45;;
45114;SDS011;30877;43.706;10.780;2023-11-22T14:52:15;4.40;;;0.88;;
45114;SDS011;30877;43.706;10.780;2023-11-22T14:54:44;5.15;;;1.58;;